Time,TemperatureF,DewpointF,PressureIn,WindDirection,WindDirectionDegrees,WindSpeedMPH,WindSpeedGustMPH,Humidity,HourlyPrecipIn,Conditions,Clouds,dailyrainin,SoftwareType,DateUTC
2013-06-20 00:01:00,55.6,23.9,29.26,SW,226,6.9,7.8,29,0.00,,---,0.00,VWS V14.01,2013-06-20 07:01:00,
2013-06-20 00:06:00,55.6,23.9,29.26,SW,219,5.8,6.7,29,0.00,,---,0.00,VWS V14.01,2013-06-20 07:06:00,
2013-06-20 00:11:00,55.4,24.5,29.26,SSW,209,5.4,6.7,30,0.00,,---,0.00,VWS V14.01,2013-06-20 07:11:00,
2013-06-20 00:16:00,55.2,24.4,29.26,SSW,202,4.0,6.3,30,0.00,,---,0.00,VWS V14.01,2013-06-20 07:16:00,
2013-06-20 00:21:00,55.2,24.4,29.26,SW,218,4.9,6.7,30,0.00,,---,0.00,VWS V14.01,2013-06-20 07:21:00,
2013-06-20 00:26:00,55.0,25.0,29.26,SSW,204,6.3,7.8,31,0.00,,---,0.00,VWS V14.01,2013-06-20 07:26:00,
2013-06-20 00:31:00,55.2,25.9,29.26,SW,227,6.3,8.7,32,0.00,,---,0.00,VWS V14.01,2013-06-20 07:31:00,
2013-06-20 00:36:00,55.0,27.2,29.26,SSW,208,5.4,8.3,34,0.00,,---,0.00,VWS V14.01,2013-06-20 07:36:00,
2013-06-20 00:41:00,55.0,27.9,29.26,South,191,6.3,8.3,35,0.00,,---,0.00,VWS V14.01,2013-06-20 07:41:00,
2013-06-20 00:46:00,54.9,27.8,29.26,SSW,200,7.4,8.3,35,0.00,,---,0.00,VWS V14.01,2013-06-20 07:46:00,
2013-06-20 00:51:00,54.9,28.4,29.26,SSW,198,6.7,9.6,36,0.00,,---,0.00,VWS V14.01,2013-06-20 07:51:00,
2013-06-20 00:56:00,54.9,28.4,29.26,South,186,6.3,8.7,36,0.00,,---,0.00,VWS V14.01,2013-06-20 07:56:00,
2013-06-20 01:01:00,54.9,28.4,29.26,South,180,6.7,9.6,36,0.00,,---,0.00,VWS V14.01,2013-06-20 08:01:00,
2013-06-20 01:06:00,54.7,28.9,29.26,SSW,199,5.8,7.4,37,0.00,,---,0.00,VWS V14.01,2013-06-20 08:06:00,
2013-06-20 01:11:00,54.7,28.3,29.26,SSW,207,8.3,8.3,36,0.00,,---,0.00,VWS V14.01,2013-06-20 08:11:00,
2013-06-20 01:16:00,54.9,28.4,29.26,SSW,193,6.9,9.2,36,0.00,,---,0.00,VWS V14.01,2013-06-20 08:16:00,
2013-06-20 01:21:00,54.9,28.4,29.26,South,190,7.8,7.8,36,0.00,,---,0.00,VWS V14.01,2013-06-20 08:21:00,
2013-06-20 01:27:00,54.7,27.6,29.26,SSW,192,4.5,6.3,35,0.00,,---,0.00,VWS V14.01,2013-06-20 08:27:00,
2013-06-20 01:32:00,54.7,27.6,29.26,SSW,208,6.3,6.7,35,0.00,,---,0.00,VWS V14.01,2013-06-20 08:32:00,
2013-06-20 01:37:00,54.7,27.6,29.23,SSW,213,6.7,8.3,35,0.00,,---,0.00,VWS V14.01,2013-06-20 08:37:00,
2013-06-20 01:42:00,54.9,27.8,29.23,SSW,207,7.4,7.8,35,0.00,,---,0.00,VWS V14.01,2013-06-20 08:42:00,
2013-06-20 01:47:00,54.7,27.6,29.23,SSW,203,3.6,4.9,35,0.00,,---,0.00,VWS V14.01,2013-06-20 08:47:00,
2013-06-20 01:52:00,54.5,28.1,29.23,SW,224,5.8,6.9,36,0.00,,---,0.00,VWS V14.01,2013-06-20 08:52:00,
2013-06-20 01:57:00,54.5,27.4,29.23,SSW,204,4.0,6.3,35,0.00,,---,0.00,VWS V14.01,2013-06-20 08:57:00,
2013-06-20 02:02:00,54.5,27.4,29.23,SW,220,6.7,6.7,35,0.00,,---,0.00,VWS V14.01,2013-06-20 09:02:00,
2013-06-20 02:07:00,54.5,27.4,29.23,SW,216,4.0,4.9,35,0.00,,---,0.00,VWS V14.01,2013-06-20 09:07:00,
2013-06-20 02:12:00,54.3,27.3,29.23,WSW,237,4.9,5.8,35,0.00,,---,0.00,VWS V14.01,2013-06-20 09:12:00,
2013-06-20 02:17:00,54.0,27.6,29.23,SW,229,6.3,7.8,36,0.00,,---,0.00,VWS V14.01,2013-06-20 09:17:00,
2013-06-20 02:22:00,54.0,27.6,29.23,SW,230,5.8,7.4,36,0.00,,---,0.00,VWS V14.01,2013-06-20 09:22:00,
2013-06-20 02:27:00,54.0,27.6,29.23,SW,226,4.9,6.7,36,0.00,,---,0.00,VWS V14.01,2013-06-20 09:27:00,
2013-06-20 02:32:00,53.8,27.5,29.23,SW,228,3.6,5.8,36,0.00,,---,0.00,VWS V14.01,2013-06-20 09:32:00,
2013-06-20 02:37:00,53.4,27.1,29.23,WSW,251,4.9,6.3,36,0.00,,---,0.00,VWS V14.01,2013-06-20 09:37:00,
2013-06-20 02:42:00,53.2,27.7,29.23,SW,222,5.8,6.3,37,0.00,,---,0.00,VWS V14.01,2013-06-20 09:42:00,
2013-06-20 02:47:00,53.4,27.8,29.23,SW,232,4.5,5.4,37,0.00,,---,0.00,VWS V14.01,2013-06-20 09:47:00,
2013-06-20 02:52:00,53.2,27.7,29.23,WSW,237,6.9,7.4,37,0.00,,---,0.00,VWS V14.01,2013-06-20 09:52:00,
2013-06-20 02:57:00,53.1,27.5,29.23,WSW,246,6.3,6.9,37,0.00,,---,0.00,VWS V14.01,2013-06-20 09:57:00,
2013-06-20 03:02:00,52.9,27.3,29.23,WSW,241,5.8,7.4,37,0.00,,---,0.00,VWS V14.01,2013-06-20 10:02:00,
2013-06-20 03:07:00,53.1,27.5,29.23,SW,233,5.8,8.3,37,0.00,,---,0.00,VWS V14.01,2013-06-20 10:07:00,
2013-06-20 03:12:00,53.1,27.5,29.23,SW,234,5.8,6.7,37,0.00,,---,0.00,VWS V14.01,2013-06-20 10:12:00,
2013-06-20 03:17:00,53.1,27.5,29.23,SW,215,5.4,6.7,37,0.00,,---,0.00,VWS V14.01,2013-06-20 10:17:00,
2013-06-20 03:22:00,52.9,27.3,29.23,WSW,239,5.8,6.3,37,0.00,,---,0.00,VWS V14.01,2013-06-20 10:22:00,
2013-06-20 03:27:00,52.3,27.5,29.23,WSW,246,5.4,6.3,38,0.00,,---,0.00,VWS V14.01,2013-06-20 10:27:00,
2013-06-20 03:32:00,51.8,27.6,29.23,WSW,242,4.0,4.9,39,0.00,,---,0.00,VWS V14.01,2013-06-20 10:32:00,
2013-06-20 03:37:00,51.6,28.7,29.23,WSW,242,6.9,6.9,41,0.00,,---,0.00,VWS V14.01,2013-06-20 10:37:00,
2013-06-20 03:42:00,51.6,29.3,29.23,WSW,248,6.3,6.3,42,0.00,,---,0.00,VWS V14.01,2013-06-20 10:42:00,
2013-06-20 03:47:00,51.3,28.4,29.23,WSW,244,3.1,3.1,41,0.00,,---,0.00,VWS V14.01,2013-06-20 10:47:00,
2013-06-20 03:52:00,50.4,27.6,29.23,WSW,247,4.0,4.0,41,0.00,,---,0.00,VWS V14.01,2013-06-20 10:52:00,
2013-06-20 03:57:00,50.0,30.0,29.23,NW,324,4.5,4.9,46,0.00,,---,0.00,VWS V14.01,2013-06-20 10:57:00,
2013-06-20 04:02:00,48.9,29.1,29.23,NNW,327,4.5,4.9,46,0.00,,---,0.00,VWS V14.01,2013-06-20 11:02:00,
2013-06-20 04:07:00,48.9,31.1,29.23,NNW,335,4.0,4.9,50,0.00,,---,0.00,VWS V14.01,2013-06-20 11:07:00,
2013-06-20 04:12:00,48.7,31.4,29.23,NNW,335,0.0,3.6,51,0.00,,---,0.00,VWS V14.01,2013-06-20 11:12:00,
2013-06-20 04:17:00,48.6,31.8,29.23,NNW,335,0.0,3.6,52,0.00,,---,0.00,VWS V14.01,2013-06-20 11:17:00,
2013-06-20 04:22:00,48.7,32.8,29.23,NNW,335,3.6,3.6,54,0.00,,---,0.00,VWS V14.01,2013-06-20 11:22:00,
2013-06-20 04:27:00,48.9,33.9,29.23,NNW,335,0.0,0.0,56,0.00,,---,0.00,VWS V14.01,2013-06-20 11:27:00,
2013-06-20 04:32:00,49.1,34.5,29.23,NNW,335,0.0,0.0,57,0.00,,---,0.00,VWS V14.01,2013-06-20 11:32:00,
2013-06-20 04:37:00,49.1,34.1,29.23,NNW,335,0.0,0.0,56,0.00,,---,0.00,VWS V14.01,2013-06-20 11:37:00,
2013-06-20 04:42:00,49.1,34.1,29.23,NNW,335,0.0,0.0,56,0.00,,---,0.00,VWS V14.01,2013-06-20 11:42:00,
2013-06-20 04:47:00,49.3,35.1,29.23,NNW,335,0.0,0.0,58,0.00,,---,0.00,VWS V14.01,2013-06-20 11:47:00,
2013-06-20 04:52:00,49.6,36.8,29.23,NNW,335,2.7,3.1,61,0.00,,---,0.00,VWS V14.01,2013-06-20 11:52:00,
2013-06-20 04:57:00,49.6,36.3,29.23,NNW,335,0.0,0.0,60,0.00,,---,0.00,VWS V14.01,2013-06-20 11:57:00,
2013-06-20 05:02:00,49.6,35.9,29.23,NNW,335,0.0,0.0,59,0.00,,---,0.00,VWS V14.01,2013-06-20 12:02:00,
2013-06-20 05:07:00,49.6,35.5,29.23,NNW,335,0.0,0.0,58,0.00,,---,0.00,VWS V14.01,2013-06-20 12:07:00,
2013-06-20 05:12:00,49.3,34.7,29.23,NNW,335,0.0,0.0,57,0.00,,---,0.00,VWS V14.01,2013-06-20 12:12:00,
2013-06-20 05:17:00,49.3,34.7,29.23,NNW,335,0.0,0.0,57,0.00,,---,0.00,VWS V14.01,2013-06-20 12:17:00,
2013-06-20 05:22:00,49.1,34.1,29.23,NNW,335,0.0,0.0,56,0.00,,---,0.00,VWS V14.01,2013-06-20 12:22:00,
2013-06-20 05:28:00,48.7,33.8,29.23,NNW,335,0.0,0.0,56,0.00,,---,0.00,VWS V14.01,2013-06-20 12:28:00,
2013-06-20 05:33:00,48.9,34.8,29.23,NNW,335,0.0,0.0,58,0.00,,---,0.00,VWS V14.01,2013-06-20 12:33:00,
2013-06-20 05:38:00,49.5,36.6,29.23,NNW,335,0.0,0.0,61,0.00,,---,0.00,VWS V14.01,2013-06-20 12:38:00,
2013-06-20 05:43:00,49.6,36.8,29.23,NNW,335,0.0,0.0,61,0.00,,---,0.00,VWS V14.01,2013-06-20 12:43:00,
2013-06-20 05:48:00,49.6,36.3,29.23,NNW,335,0.0,0.0,60,0.00,,---,0.00,VWS V14.01,2013-06-20 12:48:00,
2013-06-20 05:54:00,49.1,34.1,29.23,NNW,335,0.0,0.0,56,0.00,,---,0.00,VWS V14.01,2013-06-20 12:54:00,
2013-06-20 05:59:00,48.4,32.5,29.23,NNW,335,0.0,0.0,54,0.00,,---,0.00,VWS V14.01,2013-06-20 12:59:00,
2013-06-20 06:04:00,48.4,33.4,29.23,NNW,335,0.0,0.0,56,0.00,,---,0.00,VWS V14.01,2013-06-20 13:04:00,
2013-06-20 06:09:00,48.7,34.2,29.23,NNW,335,0.0,0.0,57,0.00,,---,0.00,VWS V14.01,2013-06-20 13:09:00,
2013-06-20 06:14:00,49.1,35.0,29.23,NNW,335,0.0,0.0,58,0.00,,---,0.00,VWS V14.01,2013-06-20 13:14:00,
2013-06-20 06:19:00,50.2,36.0,29.23,NNW,335,0.0,0.0,58,0.00,,---,0.00,VWS V14.01,2013-06-20 13:19:00,
2013-06-20 06:24:00,53.2,39.7,29.23,NNW,335,0.0,0.0,60,0.00,,---,0.00,VWS V14.01,2013-06-20 13:24:00,
2013-06-20 06:29:00,55.4,40.4,29.23,NNW,335,0.0,0.0,57,0.00,,---,0.00,VWS V14.01,2013-06-20 13:29:00,
2013-06-20 06:34:00,55.8,34.8,29.23,NNW,335,0.0,0.0,45,0.00,,---,0.00,VWS V14.01,2013-06-20 13:34:00,
2013-06-20 06:39:00,54.5,33.6,29.23,NNW,335,0.0,0.0,45,0.00,,---,0.00,VWS V14.01,2013-06-20 13:39:00,
2013-06-20 06:44:00,53.4,28.5,29.23,NNW,335,0.0,0.0,38,0.00,,---,0.00,VWS V14.01,2013-06-20 13:44:00,
2013-06-20 06:49:00,53.4,30.3,29.23,NNW,335,0.0,0.0,41,0.00,,---,0.00,VWS V14.01,2013-06-20 13:49:00,
2013-06-20 06:54:00,53.4,29.1,29.23,NNW,335,0.0,0.0,39,0.00,,---,0.00,VWS V14.01,2013-06-20 13:54:00,
2013-06-20 06:59:00,53.8,29.4,29.23,NNW,335,0.0,0.0,39,0.00,,---,0.00,VWS V14.01,2013-06-20 13:59:00,
2013-06-20 07:04:00,54.5,30.7,29.23,NNW,335,0.0,0.0,40,0.00,,---,0.00,VWS V14.01,2013-06-20 14:04:00,
2013-06-20 07:09:00,55.4,30.9,29.23,NNW,335,0.0,0.0,39,0.00,,---,0.00,VWS V14.01,2013-06-20 14:09:00,
2013-06-20 07:14:00,55.9,29.4,29.23,NNW,335,4.5,5.4,36,0.00,,---,0.00,VWS V14.01,2013-06-20 14:14:00,
2013-06-20 07:19:00,55.9,28.7,29.23,South,179,4.9,5.4,35,0.00,,---,0.00,VWS V14.01,2013-06-20 14:19:00,
2013-06-20 07:24:00,56.1,28.9,29.23,SSE,162,4.5,5.4,35,0.00,,---,0.00,VWS V14.01,2013-06-20 14:24:00,
2013-06-20 07:29:00,56.5,28.5,29.23,South,184,3.6,4.9,34,0.00,,---,0.00,VWS V14.01,2013-06-20 14:29:00,
2013-06-20 07:34:00,56.8,28.1,29.23,South,186,4.9,5.8,33,0.00,,---,0.00,VWS V14.01,2013-06-20 14:34:00,
2013-06-20 07:39:00,57.6,27.2,29.23,South,182,4.5,4.5,31,0.00,,---,0.00,VWS V14.01,2013-06-20 14:39:00,
2013-06-20 07:44:00,58.1,27.6,29.23,SW,229,4.5,5.8,31,0.00,,---,0.00,VWS V14.01,2013-06-20 14:44:00,
2013-06-20 07:49:00,58.3,26.2,29.23,South,189,2.7,5.4,29,0.00,,---,0.00,VWS V14.01,2013-06-20 14:49:00,
2013-06-20 07:54:00,58.3,26.2,29.23,SSW,197,6.3,7.4,29,0.00,,---,0.00,VWS V14.01,2013-06-20 14:54:00,
2013-06-20 07:59:00,58.5,25.5,29.23,South,175,4.9,6.9,28,0.00,,---,0.00,VWS V14.01,2013-06-20 14:59:00,
2013-06-20 08:04:00,59.2,26.1,29.23,WSW,240,4.9,5.4,28,0.00,,---,0.00,VWS V14.01,2013-06-20 15:04:00,
2013-06-20 08:09:00,59.5,25.5,29.23,SW,217,2.7,6.7,27,0.00,,---,0.00,VWS V14.01,2013-06-20 15:09:00,
2013-06-20 08:14:00,59.9,25.0,29.23,SSW,201,4.0,5.8,26,0.00,,---,0.00,VWS V14.01,2013-06-20 15:14:00,
2013-06-20 08:19:00,60.6,25.6,29.23,SSW,203,5.4,6.3,26,0.00,,---,0.00,VWS V14.01,2013-06-20 15:19:00,
2013-06-20 08:24:00,61.3,25.2,29.23,SW,214,4.9,6.3,25,0.00,,---,0.00,VWS V14.01,2013-06-20 15:24:00,
2013-06-20 08:29:00,63.5,26.1,29.23,SW,231,4.5,6.3,24,0.00,,---,0.00,VWS V14.01,2013-06-20 15:29:00,
2013-06-20 08:34:00,62.6,25.3,29.23,SSW,203,6.7,8.3,24,0.00,,---,0.00,VWS V14.01,2013-06-20 15:34:00,
2013-06-20 08:39:00,62.8,25.5,29.23,South,183,4.5,5.8,24,0.00,,---,0.00,VWS V14.01,2013-06-20 15:39:00,
2013-06-20 08:44:00,63.7,25.2,29.23,WSW,244,6.9,7.8,23,0.00,,---,0.00,VWS V14.01,2013-06-20 15:44:00,
2013-06-20 08:49:00,64.4,25.8,29.23,SW,226,5.8,7.4,23,0.00,,---,0.00,VWS V14.01,2013-06-20 15:49:00,
2013-06-20 08:54:00,64.8,26.1,29.23,SW,231,6.3,7.4,23,0.00,,---,0.00,VWS V14.01,2013-06-20 15:54:00,
2013-06-20 08:59:00,65.3,23.2,29.23,SW,230,6.9,9.6,20,0.00,,---,0.00,VWS V14.01,2013-06-20 15:59:00,
2013-06-20 09:04:00,65.5,23.4,29.23,SW,228,7.4,7.4,20,0.00,,---,0.00,VWS V14.01,2013-06-20 16:04:00,
2013-06-20 09:09:00,65.8,23.7,29.23,SW,229,8.3,8.7,20,0.00,,---,0.00,VWS V14.01,2013-06-20 16:09:00,
2013-06-20 09:14:00,68.2,25.6,29.23,SW,228,5.8,5.8,20,0.00,,---,0.00,VWS V14.01,2013-06-20 16:14:00,
2013-06-20 09:19:00,67.8,21.5,29.23,SW,232,7.4,7.4,17,0.00,,---,0.00,VWS V14.01,2013-06-20 16:19:00,
2013-06-20 09:24:00,66.7,20.6,29.23,SSW,199,4.9,6.9,17,0.00,,---,0.00,VWS V14.01,2013-06-20 16:24:00,
2013-06-20 09:30:00,68.4,21.9,29.23,West,263,4.0,7.8,17,0.00,,---,0.00,VWS V14.01,2013-06-20 16:30:00,
2013-06-20 09:35:00,69.4,22.8,29.23,SSW,194,4.9,6.3,17,0.00,,---,0.00,VWS V14.01,2013-06-20 16:35:00,
2013-06-20 09:40:00,68.4,21.9,29.23,SSW,197,4.0,5.8,17,0.00,,---,0.00,VWS V14.01,2013-06-20 16:40:00,
2013-06-20 09:45:00,68.7,22.2,29.23,SSW,208,6.7,7.8,17,0.00,,---,0.00,VWS V14.01,2013-06-20 16:45:00,
2013-06-20 09:50:00,68.0,21.6,29.21,South,184,4.5,5.4,17,0.00,,---,0.00,VWS V14.01,2013-06-20 16:50:00,
2013-06-20 09:55:00,68.7,22.2,29.21,SW,234,4.0,4.5,17,0.00,,---,0.00,VWS V14.01,2013-06-20 16:55:00,
2013-06-20 10:00:00,71.2,22.8,29.21,WNW,290,6.7,7.4,16,0.00,,---,0.00,VWS V14.01,2013-06-20 17:00:00,
2013-06-20 10:06:00,72.0,23.4,29.21,NW,306,3.1,4.9,16,0.00,,---,0.00,VWS V14.01,2013-06-20 17:06:00,
2013-06-20 10:11:00,72.9,24.1,29.21,West,272,7.8,8.3,16,0.00,,---,0.00,VWS V14.01,2013-06-20 17:11:00,
2013-06-20 10:16:00,73.4,24.5,29.21,NW,307,0.0,0.0,16,0.00,,---,0.00,VWS V14.01,2013-06-20 17:16:00,
2013-06-20 10:21:00,71.8,23.2,29.21,SW,232,2.7,4.9,16,0.00,,---,0.00,VWS V14.01,2013-06-20 17:21:00,
2013-06-20 10:26:00,72.5,23.8,29.21,SW,214,7.4,9.2,16,0.00,,---,0.00,VWS V14.01,2013-06-20 17:26:00,
2013-06-20 10:31:00,73.4,24.5,29.21,WNW,293,8.7,8.7,16,0.00,,---,0.00,VWS V14.01,2013-06-20 17:31:00,
2013-06-20 10:36:00,73.9,20.0,29.21,NW,316,5.8,5.8,13,0.00,,---,0.00,VWS V14.01,2013-06-20 17:36:00,
2013-06-20 10:41:00,74.7,20.6,29.21,WNW,288,5.8,7.8,13,0.00,,---,0.00,VWS V14.01,2013-06-20 17:41:00,
2013-06-20 10:46:00,75.2,21.0,29.21,WSW,239,3.1,4.9,13,0.00,,---,0.00,VWS V14.01,2013-06-20 17:46:00,
2013-06-20 10:51:00,75.7,21.5,29.21,SSW,201,5.8,7.8,13,0.00,,---,0.00,VWS V14.01,2013-06-20 17:51:00,
2013-06-20 10:56:00,76.1,21.7,29.21,West,267,6.3,8.3,13,0.00,,---,0.00,VWS V14.01,2013-06-20 17:56:00,
2013-06-20 11:01:00,77.2,22.6,29.21,WNW,297,0.0,6.3,13,0.00,,---,0.00,VWS V14.01,2013-06-20 18:01:00,
2013-06-20 11:06:00,77.0,22.4,29.21,WNW,292,0.0,2.7,13,0.00,,---,0.00,VWS V14.01,2013-06-20 18:06:00,
2013-06-20 11:11:00,77.7,23.0,29.21,West,281,6.3,7.4,13,0.00,,---,0.00,VWS V14.01,2013-06-20 18:11:00,
2013-06-20 11:16:00,76.5,22.0,29.21,SW,215,3.1,7.4,13,0.00,,---,0.00,VWS V14.01,2013-06-20 18:16:00,
2013-06-20 11:21:00,77.2,22.6,29.21,SW,235,4.0,6.3,13,0.00,,---,0.00,VWS V14.01,2013-06-20 18:21:00,
2013-06-20 11:26:00,79.0,22.1,29.21,WNW,290,6.3,6.9,12,0.00,,---,0.00,VWS V14.01,2013-06-20 18:26:00,
2013-06-20 11:31:00,77.9,23.1,29.21,SSW,203,0.0,0.0,13,0.00,,---,0.00,VWS V14.01,2013-06-20 18:31:00,
2013-06-20 11:36:00,78.8,22.0,29.21,WSW,252,3.6,6.3,12,0.00,,---,0.00,VWS V14.01,2013-06-20 18:36:00,
2013-06-20 11:41:00,77.4,22.7,29.21,SW,226,9.2,11.0,13,0.00,,---,0.00,VWS V14.01,2013-06-20 18:41:00,
2013-06-20 11:46:00,79.9,22.8,29.21,West,278,4.9,8.7,12,0.00,,---,0.00,VWS V14.01,2013-06-20 18:46:00,
2013-06-20 11:51:00,80.6,23.4,29.21,WNW,288,4.5,7.8,12,0.00,,---,0.00,VWS V14.01,2013-06-20 18:51:00,
2013-06-20 11:57:00,81.9,22.2,29.21,NNW,334,4.9,6.7,11,0.00,,---,0.00,VWS V14.01,2013-06-20 18:57:00,
2013-06-20 12:02:00,82.0,22.4,29.21,West,274,2.7,2.7,11,0.00,,---,0.00,VWS V14.01,2013-06-20 19:02:00,
2013-06-20 12:07:00,81.5,22.0,29.21,WNW,290,2.7,4.0,11,0.00,,---,0.00,VWS V14.01,2013-06-20 19:07:00,
2013-06-20 12:12:00,77.2,22.6,29.21,South,191,8.7,9.6,13,0.00,,---,0.00,VWS V14.01,2013-06-20 19:12:00,
2013-06-20 12:17:00,80.6,23.4,29.21,West,274,6.7,9.2,12,0.00,,---,0.00,VWS V14.01,2013-06-20 19:17:00,
2013-06-20 12:22:00,82.8,23.0,29.18,SW,231,6.9,7.8,11,0.00,,---,0.00,VWS V14.01,2013-06-20 19:22:00,
2013-06-20 12:27:00,82.4,22.7,29.18,SSW,207,0.0,3.6,11,0.00,,---,0.00,VWS V14.01,2013-06-20 19:27:00,
2013-06-20 12:32:00,81.3,23.9,29.18,WSW,238,11.2,11.2,12,0.00,,---,0.00,VWS V14.01,2013-06-20 19:32:00,
2013-06-20 12:37:00,78.6,21.8,29.18,South,170,6.3,9.2,12,0.00,,---,0.00,VWS V14.01,2013-06-20 19:37:00,
2013-06-20 12:42:00,79.7,22.6,29.18,SSE,159,6.9,7.8,12,0.00,,---,0.00,VWS V14.01,2013-06-20 19:42:00,
2013-06-20 12:47:00,80.4,23.2,29.18,WSW,251,7.4,8.7,12,0.00,,---,0.00,VWS V14.01,2013-06-20 19:47:00,
2013-06-20 12:52:00,83.5,23.5,29.18,WSW,250,0.0,5.8,11,0.00,,---,0.00,VWS V14.01,2013-06-20 19:52:00,
2013-06-20 12:57:00,82.0,22.4,29.18,North,351,0.0,5.8,11,0.00,,---,0.00,VWS V14.01,2013-06-20 19:57:00,
2013-06-20 13:02:00,84.2,24.0,29.18,West,268,5.8,9.2,11,0.00,,---,0.00,VWS V14.01,2013-06-20 20:02:00,
2013-06-20 13:07:00,86.0,25.4,29.18,West,263,0.0,7.4,11,0.00,,---,0.00,VWS V14.01,2013-06-20 20:07:00,
2013-06-20 13:12:00,85.6,25.2,29.18,WSW,243,3.6,4.0,11,0.00,,---,0.00,VWS V14.01,2013-06-20 20:12:00,
2013-06-20 13:17:00,82.4,22.7,29.18,SSW,205,8.3,9.6,11,0.00,,---,0.00,VWS V14.01,2013-06-20 20:17:00,
2013-06-20 13:22:00,81.7,22.1,29.18,SSW,198,9.6,9.6,11,0.00,,---,0.00,VWS V14.01,2013-06-20 20:22:00,
2013-06-20 13:27:00,81.0,23.6,29.18,SW,215,6.7,8.7,12,0.00,,---,0.00,VWS V14.01,2013-06-20 20:27:00,
2013-06-20 13:32:00,83.8,23.8,29.18,WSW,258,9.6,11.6,11,0.00,,---,0.00,VWS V14.01,2013-06-20 20:32:00,
2013-06-20 13:37:00,83.1,23.2,29.18,NW,326,6.9,11.0,11,0.00,,---,0.00,VWS V14.01,2013-06-20 20:37:00,
2013-06-20 13:43:00,83.8,23.8,29.18,South,182,4.0,4.0,11,0.00,,---,0.00,VWS V14.01,2013-06-20 20:43:00,
2013-06-20 13:49:00,84.4,24.2,29.18,WSW,238,8.3,9.6,11,0.00,,---,0.00,VWS V14.01,2013-06-20 20:49:00,
2013-06-20 13:54:00,85.8,25.3,29.18,WNW,302,5.8,9.6,11,0.00,,---,0.00,VWS V14.01,2013-06-20 20:54:00,
2013-06-20 13:59:00,84.9,24.6,29.18,WNW,286,7.4,9.6,11,0.00,,---,0.00,VWS V14.01,2013-06-20 20:59:00,
2013-06-20 14:04:00,84.9,24.6,29.18,SW,222,0.0,6.3,11,0.00,,---,0.00,VWS V14.01,2013-06-20 21:04:00,
2013-06-20 14:09:00,84.0,23.9,29.18,WSW,251,0.0,6.7,11,0.00,,---,0.00,VWS V14.01,2013-06-20 21:09:00,
2013-06-20 14:14:00,84.6,24.3,29.18,SSW,204,0.0,4.5,11,0.00,,---,0.00,VWS V14.01,2013-06-20 21:14:00,
2013-06-20 14:19:00,86.0,25.4,29.18,West,279,11.2,11.2,11,0.00,,---,0.00,VWS V14.01,2013-06-20 21:19:00,
2013-06-20 14:24:00,85.5,25.0,29.18,SSW,202,8.7,9.6,11,0.00,,---,0.00,VWS V14.01,2013-06-20 21:24:00,
2013-06-20 14:29:00,85.5,25.0,29.18,WSW,253,11.0,12.1,11,0.00,,---,0.00,VWS V14.01,2013-06-20 21:29:00,
2013-06-20 14:34:00,84.9,24.6,29.18,WSW,243,7.8,7.8,11,0.00,,---,0.00,VWS V14.01,2013-06-20 21:34:00,
2013-06-20 14:39:00,85.3,24.9,29.18,West,270,4.9,8.3,11,0.00,,---,0.00,VWS V14.01,2013-06-20 21:39:00,
2013-06-20 14:44:00,83.3,23.4,29.18,WSW,238,10.1,11.6,11,0.00,,---,0.00,VWS V14.01,2013-06-20 21:44:00,
2013-06-20 14:49:00,85.1,24.7,29.15,WSW,252,9.6,11.6,11,0.00,,---,0.00,VWS V14.01,2013-06-20 21:49:00,
2013-06-20 14:54:00,85.5,25.0,29.15,WSW,240,10.1,13.4,11,0.00,,---,0.00,VWS V14.01,2013-06-20 21:54:00,
2013-06-20 14:59:00,84.9,24.6,29.15,WSW,252,9.6,11.6,11,0.00,,---,0.00,VWS V14.01,2013-06-20 21:59:00,
2013-06-20 15:04:00,85.5,25.0,29.15,West,259,13.0,15.9,11,0.00,,---,0.00,VWS V14.01,2013-06-20 22:04:00,
2013-06-20 15:09:00,85.1,24.7,29.15,WNW,287,13.9,13.9,11,0.00,,---,0.00,VWS V14.01,2013-06-20 22:09:00,
2013-06-20 15:14:00,83.8,23.8,29.15,NW,310,14.3,16.8,11,0.00,,---,0.00,VWS V14.01,2013-06-20 22:14:00,
2013-06-20 15:19:00,84.0,23.9,29.15,West,281,10.1,12.5,11,0.00,,---,0.00,VWS V14.01,2013-06-20 22:19:00,
2013-06-20 15:24:00,84.7,24.5,29.15,WNW,282,11.0,11.0,11,0.00,,---,0.00,VWS V14.01,2013-06-20 22:24:00,
2013-06-20 15:29:00,84.9,24.6,29.15,WSW,250,11.6,13.9,11,0.00,,---,0.00,VWS V14.01,2013-06-20 22:29:00,
2013-06-20 15:34:00,84.2,24.0,29.18,West,275,12.5,12.5,11,0.00,,---,0.00,VWS V14.01,2013-06-20 22:34:00,
2013-06-20 15:39:00,84.4,24.2,29.18,West,271,15.2,15.9,11,0.00,,---,0.00,VWS V14.01,2013-06-20 22:39:00,
2013-06-20 15:44:00,83.7,23.6,29.18,West,279,12.1,13.4,11,0.00,,---,0.00,VWS V14.01,2013-06-20 22:44:00,
2013-06-20 15:49:00,83.7,23.6,29.18,West,271,8.3,16.3,11,0.00,,---,0.00,VWS V14.01,2013-06-20 22:49:00,
2013-06-20 15:54:00,82.9,23.1,29.18,West,267,12.5,14.3,11,0.00,,---,0.00,VWS V14.01,2013-06-20 22:54:00,
2013-06-20 15:59:00,82.9,23.1,29.18,WSW,245,10.1,12.5,11,0.00,,---,0.00,VWS V14.01,2013-06-20 22:59:00,
2013-06-20 16:04:00,82.6,22.8,29.18,SW,235,13.4,15.4,11,0.00,,---,0.00,VWS V14.01,2013-06-20 23:04:00,
2013-06-20 16:09:00,82.6,22.8,29.18,West,260,13.0,13.0,11,0.00,,---,0.00,VWS V14.01,2013-06-20 23:09:00,
2013-06-20 16:14:00,82.6,22.8,29.18,West,278,13.9,16.3,11,0.00,,---,0.00,VWS V14.01,2013-06-20 23:14:00,
2013-06-20 16:19:00,82.4,22.7,29.18,WNW,292,13.0,14.3,11,0.00,,---,0.00,VWS V14.01,2013-06-20 23:19:00,
2013-06-20 16:24:00,82.0,22.4,29.18,West,268,14.8,16.8,11,0.00,,---,0.00,VWS V14.01,2013-06-20 23:24:00,
2013-06-20 16:29:00,81.1,23.8,29.18,West,266,9.2,13.0,12,0.00,,---,0.00,VWS V14.01,2013-06-20 23:29:00,
2013-06-20 16:34:00,80.6,23.4,29.18,WSW,250,12.1,14.8,12,0.00,,---,0.00,VWS V14.01,2013-06-20 23:34:00,
2013-06-20 16:39:00,80.4,23.2,29.18,West,259,6.7,14.8,12,0.00,,---,0.00,VWS V14.01,2013-06-20 23:39:00,
2013-06-20 16:44:00,80.6,23.4,29.18,WNW,287,12.1,15.2,12,0.00,,---,0.00,VWS V14.01,2013-06-20 23:44:00,
2013-06-20 16:49:00,80.8,23.5,29.18,West,278,8.7,13.9,12,0.00,,---,0.00,VWS V14.01,2013-06-20 23:49:00,
2013-06-20 16:54:00,80.6,23.4,29.18,WNW,286,12.5,14.8,12,0.00,,---,0.00,VWS V14.01,2013-06-20 23:54:00,
2013-06-20 16:59:00,79.7,22.6,29.18,NW,311,11.6,16.3,12,0.00,,---,0.00,VWS V14.01,2013-06-20 23:59:00,
2013-06-20 17:04:00,79.7,22.6,29.18,West,281,10.5,11.6,12,0.00,,---,0.00,VWS V14.01,2013-06-21 00:04:00,
2013-06-20 17:09:00,79.5,22.5,29.18,West,273,13.9,13.9,12,0.00,,---,0.00,VWS V14.01,2013-06-21 00:09:00,
2013-06-20 17:14:00,79.2,22.2,29.18,WNW,295,9.2,15.4,12,0.00,,---,0.00,VWS V14.01,2013-06-21 00:14:00,
2013-06-20 17:19:00,79.2,22.2,29.18,WNW,283,10.1,14.3,12,0.00,,---,0.00,VWS V14.01,2013-06-21 00:19:00,
2013-06-20 17:24:00,79.3,22.4,29.18,West,266,10.1,14.3,12,0.00,,---,0.00,VWS V14.01,2013-06-21 00:24:00,
2013-06-20 17:29:00,79.2,22.2,29.18,WSW,256,8.7,13.9,12,0.00,,---,0.00,VWS V14.01,2013-06-21 00:29:00,
2013-06-20 17:34:00,79.2,22.2,29.18,West,272,10.1,13.9,12,0.00,,---,0.00,VWS V14.01,2013-06-21 00:34:00,
2013-06-20 17:39:00,79.3,22.4,29.18,SW,223,5.4,9.2,12,0.00,,---,0.00,VWS V14.01,2013-06-21 00:39:00,
2013-06-20 17:44:00,79.3,22.4,29.18,SW,223,5.4,5.4,12,0.00,,---,0.00,VWS V14.01,2013-06-21 00:44:00,
2013-06-20 17:49:00,76.8,22.3,29.18,SSW,199,6.9,8.7,13,0.00,,---,0.00,VWS V14.01,2013-06-21 00:49:00,
2013-06-20 17:54:00,75.6,21.3,29.18,SW,234,12.1,12.1,13,0.00,,---,0.00,VWS V14.01,2013-06-21 00:54:00,
2013-06-20 17:59:00,74.3,20.3,29.18,South,187,13.9,13.9,13,0.00,,---,0.00,VWS V14.01,2013-06-21 00:59:00,
2013-06-20 18:05:00,74.5,20.5,29.18,SW,219,11.0,13.4,13,0.00,,---,0.00,VWS V14.01,2013-06-21 01:05:00,
2013-06-20 18:10:00,73.4,19.6,29.18,SSW,199,11.2,15.2,13,0.00,,---,0.00,VWS V14.01,2013-06-21 01:10:00,
2013-06-20 18:15:00,72.7,19.0,29.18,SW,219,11.2,14.8,13,0.00,,---,0.00,VWS V14.01,2013-06-21 01:15:00,
2013-06-20 18:20:00,71.1,19.5,29.18,SSW,198,12.5,15.4,14,0.00,,---,0.00,VWS V14.01,2013-06-21 01:20:00,
2013-06-20 18:25:00,70.5,19.1,29.18,SSW,203,12.5,15.9,14,0.00,,---,0.00,VWS V14.01,2013-06-21 01:25:00,
2013-06-20 18:30:00,70.5,19.1,29.18,SW,217,12.1,12.5,14,0.00,,---,0.00,VWS V14.01,2013-06-21 01:30:00,
2013-06-20 18:35:00,70.5,19.1,29.18,SW,217,11.6,14.8,14,0.00,,---,0.00,VWS V14.01,2013-06-21 01:35:00,
2013-06-20 18:40:00,70.7,19.2,29.18,SW,228,11.6,14.3,14,0.00,,---,0.00,VWS V14.01,2013-06-21 01:40:00,
2013-06-20 18:45:00,69.8,18.5,29.18,SSW,202,13.4,14.3,14,0.00,,---,0.00,VWS V14.01,2013-06-21 01:45:00,
2013-06-20 18:50:00,69.1,17.9,29.18,SW,227,13.0,15.2,14,0.00,,---,0.00,VWS V14.01,2013-06-21 01:50:00,
2013-06-20 18:55:00,68.0,18.7,29.18,SW,215,11.6,15.4,15,0.00,,---,0.00,VWS V14.01,2013-06-21 01:55:00,
2013-06-20 19:00:00,67.8,18.5,29.18,SW,215,14.8,15.9,15,0.00,,---,0.00,VWS V14.01,2013-06-21 02:00:00,
2013-06-20 19:06:00,67.3,18.1,29.18,SSW,202,11.2,13.9,15,0.00,,---,0.00,VWS V14.01,2013-06-21 02:06:00,
2013-06-20 19:11:00,67.3,18.1,29.18,SSW,201,8.3,8.3,15,0.00,,---,0.00,VWS V14.01,2013-06-21 02:11:00,
2013-06-20 19:16:00,66.7,17.6,29.18,SW,230,13.0,13.0,15,0.00,,---,0.00,VWS V14.01,2013-06-21 02:16:00,
2013-06-20 19:22:00,66.6,17.5,29.18,SW,223,11.6,13.4,15,0.00,,---,0.00,VWS V14.01,2013-06-21 02:22:00,
2013-06-20 19:27:00,66.4,17.4,29.18,SW,232,11.0,14.8,15,0.00,,---,0.00,VWS V14.01,2013-06-21 02:27:00,
2013-06-20 19:32:00,65.7,16.8,29.18,SSW,211,11.6,16.3,15,0.00,,---,0.00,VWS V14.01,2013-06-21 02:32:00,
2013-06-20 19:37:00,65.5,16.6,29.18,SW,219,14.3,14.3,15,0.00,,---,0.00,VWS V14.01,2013-06-21 02:37:00,
2013-06-20 19:42:00,65.7,16.8,29.18,SW,216,13.9,14.8,15,0.00,,---,0.00,VWS V14.01,2013-06-21 02:42:00,
2013-06-20 19:48:00,65.7,16.8,29.18,SSW,200,9.2,11.0,15,0.00,,---,0.00,VWS V14.01,2013-06-21 02:48:00,
2013-06-20 19:53:00,64.8,16.1,29.18,SSW,198,11.6,12.1,15,0.00,,---,0.00,VWS V14.01,2013-06-21 02:53:00,
2013-06-20 19:58:00,64.0,15.5,29.18,SW,215,13.9,13.9,15,0.00,,---,0.00,VWS V14.01,2013-06-21 02:58:00,
2013-06-20 20:03:00,64.0,15.5,29.18,SSW,208,9.2,9.2,15,0.00,,---,0.00,VWS V14.01,2013-06-21 03:03:00,
2013-06-20 20:08:00,64.0,15.5,29.18,SSW,208,9.2,9.2,15,0.00,,---,0.00,VWS V14.01,2013-06-21 03:08:00,
2013-06-20 20:13:00,64.0,15.5,29.18,SSW,208,9.2,9.2,15,0.00,,---,0.00,VWS V14.01,2013-06-21 03:13:00,
2013-06-20 20:18:00,64.0,15.5,29.18,SSW,208,9.2,9.2,15,0.00,,---,0.00,VWS V14.01,2013-06-21 03:18:00,
2013-06-20 20:23:00,64.0,15.5,29.18,SSW,208,9.2,9.2,15,0.00,,---,0.00,VWS V14.01,2013-06-21 03:23:00,
2013-06-20 20:28:00,64.0,15.5,29.18,SSW,208,9.2,9.2,15,0.00,,---,0.00,VWS V14.01,2013-06-21 03:28:00,
2013-06-20 20:33:00,64.0,15.5,29.18,SSW,202,10.5,10.5,15,0.00,,---,0.00,VWS V14.01,2013-06-21 03:33:00,
2013-06-20 20:38:00,64.0,15.5,29.18,SSW,202,10.5,10.5,15,0.00,,---,0.00,VWS V14.01,2013-06-21 03:38:00,
2013-06-20 20:43:00,64.0,15.5,29.18,SSW,202,10.5,10.5,15,0.00,,---,0.00,VWS V14.01,2013-06-21 03:43:00,
2013-06-20 20:48:00,59.7,20.8,29.21,SW,222,12.5,12.5,22,0.00,,---,0.00,VWS V14.01,2013-06-21 03:48:00,
2013-06-20 20:53:00,59.4,22.6,29.21,SW,216,11.6,13.0,24,0.00,,---,0.00,VWS V14.01,2013-06-21 03:53:00,
2013-06-20 20:58:00,59.4,22.6,29.21,SSW,208,13.0,13.0,24,0.00,,---,0.00,VWS V14.01,2013-06-21 03:58:00,
2013-06-20 21:01:00,58.8,22.1,29.21,SW,219,9.6,13.0,24,0.00,,---,0.00,VWS V14.01,2013-06-21 04:01:00,
2013-06-20 21:02:00,58.8,22.1,29.21,SW,223,8.7,12.1,24,0.00,,---,0.00,VWS V14.01,2013-06-21 04:02:00,
2013-06-20 21:07:00,58.6,22.0,29.21,SSW,205,9.2,10.5,24,0.00,,---,0.00,VWS V14.01,2013-06-21 04:07:00,
2013-06-20 21:08:00,58.6,22.0,29.21,SW,232,10.5,11.6,24,0.00,,---,0.00,VWS V14.01,2013-06-21 04:08:00,
2013-06-20 21:10:00,58.5,21.8,29.21,SW,229,11.0,11.0,24,0.00,,---,0.00,VWS V14.01,2013-06-21 04:10:00,
2013-06-20 21:14:00,58.5,21.8,29.21,WSW,245,10.1,12.1,24,0.00,,---,0.00,VWS V14.01,2013-06-21 04:14:00,
2013-06-20 21:19:00,58.1,22.5,29.21,SW,224,11.0,13.0,25,0.00,,---,0.00,VWS V14.01,2013-06-21 04:19:00,
2013-06-20 21:25:00,57.9,22.3,29.21,WSW,240,9.2,10.5,25,0.00,,---,0.00,VWS V14.01,2013-06-21 04:25:00,
2013-06-20 21:30:00,57.9,22.3,29.21,SW,225,7.8,8.7,25,0.00,,---,0.00,VWS V14.01,2013-06-21 04:30:00,
2013-06-20 21:35:00,57.9,22.3,29.23,WSW,237,8.7,10.5,25,0.00,,---,0.00,VWS V14.01,2013-06-21 04:35:00,
2013-06-20 21:40:00,58.1,22.5,29.23,SW,234,11.0,11.0,25,0.00,,---,0.00,VWS V14.01,2013-06-21 04:40:00,
2013-06-20 21:46:00,58.1,22.5,29.23,WSW,237,6.3,9.2,25,0.00,,---,0.00,VWS V14.01,2013-06-21 04:46:00,
2013-06-20 21:52:00,58.1,22.5,29.23,SSW,211,5.8,10.1,25,0.00,,---,0.00,VWS V14.01,2013-06-21 04:52:00,
2013-06-20 21:57:00,58.1,22.5,29.23,SSW,203,5.8,6.7,25,0.00,,---,0.00,VWS V14.01,2013-06-21 04:57:00,
2013-06-20 22:02:00,58.1,22.5,29.23,SSW,202,9.2,9.6,25,0.00,,---,0.00,VWS V14.01,2013-06-21 05:02:00,
2013-06-20 22:07:00,57.9,22.3,29.23,SW,229,9.2,10.5,25,0.00,,---,0.00,VWS V14.01,2013-06-21 05:07:00,
2013-06-20 22:12:00,57.6,22.0,29.23,West,259,7.4,13.0,25,0.00,,---,0.00,VWS V14.01,2013-06-21 05:12:00,
2013-06-20 22:17:00,57.4,21.9,29.23,SW,233,7.4,8.7,25,0.00,,---,0.00,VWS V14.01,2013-06-21 05:17:00,
2013-06-20 22:22:00,57.0,21.6,29.23,SW,233,4.9,6.3,25,0.00,,---,0.00,VWS V14.01,2013-06-21 05:22:00,
2013-06-20 22:27:00,56.8,22.3,29.23,SW,236,8.3,8.3,26,0.00,,---,0.00,VWS V14.01,2013-06-21 05:27:00,
2013-06-20 22:32:00,56.7,22.2,29.23,WSW,253,6.3,7.8,26,0.00,,---,0.00,VWS V14.01,2013-06-21 05:32:00,
2013-06-20 22:37:00,56.7,22.2,29.23,SW,233,5.4,7.8,26,0.00,,---,0.00,VWS V14.01,2013-06-21 05:37:00,
2013-06-20 22:42:00,56.7,22.2,29.23,SW,225,6.7,9.2,26,0.00,,---,0.00,VWS V14.01,2013-06-21 05:42:00,
2013-06-20 22:47:00,56.5,22.0,29.23,WSW,239,0.0,3.1,26,0.00,,---,0.00,VWS V14.01,2013-06-21 05:47:00,
2013-06-20 22:52:00,55.9,21.6,29.23,WSW,239,3.6,4.0,26,0.00,,---,0.00,VWS V14.01,2013-06-21 05:52:00,
2013-06-20 22:57:00,55.4,21.1,29.23,West,260,4.0,4.5,26,0.00,,---,0.00,VWS V14.01,2013-06-21 05:57:00,
2013-06-20 23:02:00,55.0,21.7,29.23,West,259,5.4,5.4,27,0.00,,---,0.00,VWS V14.01,2013-06-21 06:02:00,
2013-06-20 23:07:00,54.7,21.4,29.23,West,259,6.7,6.7,27,0.00,,---,0.00,VWS V14.01,2013-06-21 06:07:00,
2013-06-20 23:12:00,54.7,22.2,29.23,West,263,3.1,3.6,28,0.00,,---,0.00,VWS V14.01,2013-06-21 06:12:00,
2013-06-20 23:17:00,54.5,22.9,29.23,West,263,4.0,4.0,29,0.00,,---,0.00,VWS V14.01,2013-06-21 06:17:00,
2013-06-20 23:22:00,54.5,23.7,29.23,West,262,4.5,4.5,30,0.00,,---,0.00,VWS V14.01,2013-06-21 06:22:00,
2013-06-20 23:27:00,54.5,23.7,29.23,WSW,258,3.6,4.0,30,0.00,,---,0.00,VWS V14.01,2013-06-21 06:27:00,
2013-06-20 23:32:00,55.4,23.7,29.23,SSW,207,6.7,6.9,29,0.00,,---,0.00,VWS V14.01,2013-06-21 06:32:00,
2013-06-20 23:37:00,55.9,23.3,29.23,SW,227,5.4,6.3,28,0.00,,---,0.00,VWS V14.01,2013-06-21 06:37:00,
2013-06-20 23:42:00,55.9,23.3,29.23,SSW,212,5.8,7.4,28,0.00,,---,0.00,VWS V14.01,2013-06-21 06:42:00,
2013-06-20 23:47:00,55.9,23.3,29.23,SW,219,7.4,7.4,28,0.00,,---,0.00,VWS V14.01,2013-06-21 06:47:00,
2013-06-20 23:52:00,56.1,23.5,29.23,SSW,210,8.3,8.3,28,0.00,,---,0.00,VWS V14.01,2013-06-21 06:52:00,
2013-06-20 23:57:00,56.3,22.8,29.23,SSW,199,6.9,8.7,27,0.00,,---,0.00,VWS V14.01,2013-06-21 06:57:00,